createdAt,value
2017-01-15T00:00:00.705Z,23.82
2017-01-15T00:00:28.953Z,23.88
2017-01-15T00:00:57.147Z,23.79
2017-01-15T00:01:25.385Z,23.79
2017-01-15T00:01:53.609Z,23.85
2017-01-15T00:02:21.881Z,23.82
2017-01-15T00:02:50.143Z,23.81
2017-01-15T00:03:18.299Z,23.78
2017-01-15T00:03:46.438Z,23.78
2017-01-15T00:04:14.526Z,23.71
2017-01-15T00:04:42.756Z,23.76
2017-01-15T00:05:53.995Z,23.74
2017-01-15T00:06:22.237Z,23.76
2017-01-15T00:06:50.365Z,23.64
2017-01-15T00:07:18.507Z,23.64
2017-01-15T00:07:46.638Z,23.67
2017-01-15T00:08:14.709Z,23.66
2017-01-15T00:08:42.896Z,23.64
2017-01-15T00:09:11.054Z,23.66
2017-01-15T00:09:38.980Z,23.63
2017-01-15T00:10:06.802Z,23.56
2017-01-15T00:10:34.864Z,23.66
2017-01-15T00:11:46.228Z,23.61
2017-01-15T00:12:14.443Z,23.63
2017-01-15T00:12:42.583Z,23.61
2017-01-15T00:13:10.782Z,23.6
2017-01-15T00:13:39.001Z,23.51
2017-01-15T00:14:07.242Z,23.48
2017-01-15T00:14:35.584Z,23.45
2017-01-15T00:15:03.855Z,23.52
2017-01-15T00:15:32.162Z,23.56
2017-01-15T00:16:00.305Z,23.54
2017-01-15T00:16:28.592Z,23.56
2017-01-15T00:17:39.963Z,23.54
2017-01-15T00:18:08.084Z,23.55
2017-01-15T00:18:36.089Z,23.48
2017-01-15T00:19:04.351Z,23.52
2017-01-15T00:19:32.297Z,23.49
2017-01-15T00:20:00.563Z,23.49
2017-01-15T00:20:28.863Z,23.6
2017-01-15T00:20:56.914Z,23.61
2017-01-15T00:21:25.242Z,23.54
2017-01-15T00:21:53.428Z,23.51
2017-01-15T00:22:21.595Z,23.49
2017-01-15T00:23:32.895Z,23.66
2017-01-15T00:24:01.204Z,23.61
2017-01-15T00:24:29.380Z,23.61
2017-01-15T00:24:57.668Z,23.61
2017-01-15T00:25:25.799Z,23.66
2017-01-15T00:25:53.950Z,23.66
2017-01-15T00:26:22.143Z,23.69
2017-01-15T00:26:50.385Z,23.67
2017-01-15T00:27:18.592Z,23.66
2017-01-15T00:27:46.872Z,23.67
2017-01-15T00:28:14.845Z,23.63
2017-01-15T00:29:26.052Z,23.64
2017-01-15T00:29:54.175Z,23.64
2017-01-15T00:30:22.147Z,23.61
2017-01-15T00:30:50.329Z,23.66
2017-01-15T00:31:18.364Z,23.6
2017-01-15T00:31:46.607Z,23.61
2017-01-15T00:32:14.753Z,23.61
2017-01-15T00:32:42.940Z,23.6
2017-01-15T00:33:11.061Z,23.61
2017-01-15T00:33:39.057Z,23.63
2017-01-15T00:34:07.346Z,23.55
2017-01-15T00:35:18.647Z,23.56
2017-01-15T00:35:46.777Z,23.6
2017-01-15T00:36:15.618Z,23.59
2017-01-15T00:36:43.857Z,23.56
2017-01-15T00:37:11.986Z,23.55
2017-01-15T00:37:40.233Z,23.55
2017-01-15T00:38:08.467Z,23.51
2017-01-15T00:38:36.729Z,23.61
2017-01-15T00:39:04.757Z,23.59
2017-01-15T00:39:32.777Z,23.61
2017-01-15T00:40:00.668Z,23.54
2017-01-15T00:41:11.922Z,23.63
2017-01-15T00:41:39.949Z,23.48
2017-01-15T00:42:08.033Z,23.46
2017-01-15T00:42:36.220Z,23.46
2017-01-15T00:43:04.396Z,23.52
2017-01-15T00:43:32.733Z,23.46
2017-01-15T00:44:01.017Z,23.45
2017-01-15T00:44:29.135Z,23.45
2017-01-15T00:44:57.294Z,23.41
2017-01-15T00:45:25.474Z,23.49
2017-01-15T00:45:53.844Z,23.39
2017-01-15T00:47:05.025Z,23.46
2017-01-15T00:47:33.141Z,23.37
2017-01-15T00:48:01.202Z,23.39
2017-01-15T00:48:29.284Z,23.37
2017-01-15T00:48:57.462Z,23.31
2017-01-15T00:49:25.838Z,23.36
2017-01-15T00:49:53.942Z,23.41
2017-01-15T00:50:22.215Z,23.37
2017-01-15T00:50:50.531Z,23.37
2017-01-15T00:51:18.716Z,23.54
2017-01-15T00:51:47.025Z,23.49
2017-01-15T00:52:58.143Z,23.49
2017-01-15T00:53:26.360Z,23.49
2017-01-15T00:53:54.651Z,23.46
2017-01-15T00:54:23.028Z,23.51
2017-01-15T00:54:51.397Z,23.44
2017-01-15T00:55:19.587Z,23.45
2017-01-15T00:55:47.862Z,23.45
2017-01-15T00:56:16.005Z,23.51
2017-01-15T00:56:44.215Z,23.48
2017-01-15T00:57:12.506Z,23.48
2017-01-15T00:57:40.687Z,23.48
2017-01-15T00:58:51.946Z,23.46
2017-01-15T00:59:20.051Z,23.51
2017-01-15T00:59:48.164Z,23.46
2017-01-15T01:00:16.570Z,23.46
2017-01-15T01:00:44.744Z,23.39
2017-01-15T01:01:13.021Z,23.37
2017-01-15T01:01:41.403Z,23.37
2017-01-15T01:02:09.775Z,23.42
2017-01-15T01:02:37.942Z,23.36
2017-01-15T01:03:06.078Z,23.34
2017-01-15T01:03:34.262Z,23.36
2017-01-15T01:04:45.342Z,23.33
2017-01-15T01:05:13.429Z,23.37
2017-01-15T01:05:41.538Z,23.28
2017-01-15T01:06:09.713Z,23.28
2017-01-15T01:06:37.676Z,23.42
2017-01-15T01:07:05.947Z,23.34
2017-01-15T01:07:33.999Z,23.37
2017-01-15T01:08:02.048Z,23.36
2017-01-15T01:08:30.255Z,23.41
2017-01-15T01:08:58.513Z,23.45
2017-01-15T01:09:26.729Z,23.46
2017-01-15T01:10:37.749Z,23.37
2017-01-15T01:11:06.032Z,23.44
2017-01-15T01:11:34.162Z,23.36
2017-01-15T01:12:02.392Z,23.37
2017-01-15T01:12:30.435Z,23.36
2017-01-15T01:12:58.702Z,23.39
2017-01-15T01:13:26.662Z,23.41
2017-01-15T01:13:54.899Z,23.33
2017-01-15T01:14:23.247Z,23.42
2017-01-15T01:14:51.279Z,23.37
2017-01-15T01:15:19.354Z,23.41
2017-01-15T01:16:30.566Z,23.46
2017-01-15T01:16:58.786Z,23.45
2017-01-15T01:17:27.013Z,23.41
2017-01-15T01:17:55.238Z,23.51
2017-01-15T01:18:23.486Z,23.37
2017-01-15T01:18:51.637Z,23.34
2017-01-15T01:19:19.971Z,23.46
2017-01-15T01:19:48.309Z,23.39
2017-01-15T01:20:16.473Z,23.33
2017-01-15T01:20:44.733Z,23.31
2017-01-15T01:21:12.950Z,23.39
2017-01-15T01:22:24.123Z,23.36
2017-01-15T01:22:52.203Z,23.44
2017-01-15T01:23:20.507Z,23.34
2017-01-15T01:23:48.899Z,23.37
2017-01-15T01:24:16.818Z,23.33
2017-01-15T01:24:45.038Z,23.33
2017-01-15T01:25:13.200Z,23.29
2017-01-15T01:25:41.481Z,23.39
2017-01-15T01:26:09.739Z,23.34
2017-01-15T01:26:37.934Z,23.36
2017-01-15T01:27:06.202Z,23.36
2017-01-15T01:28:17.617Z,23.34
2017-01-15T01:28:45.785Z,23.36
2017-01-15T01:29:13.869Z,23.37
2017-01-15T01:29:42.181Z,23.37
2017-01-15T01:30:10.450Z,23.39
2017-01-15T01:30:38.739Z,23.41
2017-01-15T01:31:07.014Z,23.41
2017-01-15T01:31:35.231Z,23.41
2017-01-15T01:32:03.489Z,23.36
2017-01-15T01:32:31.659Z,23.39
2017-01-15T01:32:59.931Z,23.33
2017-01-15T01:34:11.108Z,23.41
2017-01-15T01:34:39.372Z,23.33
2017-01-15T01:35:07.538Z,23.37
2017-01-15T01:35:35.626Z,23.39
2017-01-15T01:36:03.656Z,23.36
2017-01-15T01:36:31.951Z,23.36
2017-01-15T01:37:00.192Z,23.34
2017-01-15T01:37:28.341Z,23.33
2017-01-15T01:37:56.439Z,23.33
2017-01-15T01:38:24.572Z,23.34
2017-01-15T01:38:52.747Z,23.31
2017-01-15T01:40:04.012Z,23.28
2017-01-15T01:40:32.369Z,23.36
2017-01-15T01:41:00.388Z,23.36
2017-01-15T01:41:28.811Z,23.42
2017-01-15T01:41:56.898Z,23.36
2017-01-15T01:42:25.098Z,23.39
2017-01-15T01:42:53.519Z,23.33
2017-01-15T01:43:21.715Z,23.36
2017-01-15T01:43:49.739Z,23.45
2017-01-15T01:44:17.969Z,23.37
2017-01-15T01:44:45.962Z,23.41
2017-01-15T01:45:57.369Z,23.46
2017-01-15T01:46:25.543Z,23.44
2017-01-15T01:46:53.792Z,23.46
2017-01-15T01:47:21.885Z,23.49
2017-01-15T01:47:50.145Z,23.48
2017-01-15T01:48:18.472Z,23.46
2017-01-15T01:48:46.805Z,23.42
2017-01-15T01:49:14.992Z,23.45
2017-01-15T01:49:43.160Z,23.37
2017-01-15T01:50:11.485Z,23.46
2017-01-15T01:50:39.572Z,23.42
2017-01-15T01:51:50.926Z,23.42
2017-01-15T01:52:19.189Z,23.41
2017-01-15T01:52:47.305Z,23.42
2017-01-15T01:53:15.683Z,23.41
2017-01-15T01:53:43.963Z,23.36
2017-01-15T01:54:12.346Z,23.37
2017-01-15T01:54:40.635Z,23.39
2017-01-15T01:55:08.831Z,23.39
2017-01-15T01:55:36.998Z,23.36
2017-01-15T01:56:05.232Z,23.37
2017-01-15T01:56:33.509Z,23.34
2017-01-15T01:57:44.781Z,23.42
2017-01-15T01:58:13.135Z,23.34
2017-01-15T01:58:41.251Z,23.37
2017-01-15T01:59:09.532Z,23.36
2017-01-15T01:59:37.714Z,23.29
2017-01-15T02:00:06.098Z,23.41
2017-01-15T02:00:34.480Z,23.31
2017-01-15T02:01:02.672Z,23.33
2017-01-15T02:01:30.839Z,23.41
2017-01-15T02:01:58.879Z,23.33
2017-01-15T02:02:27.150Z,23.33
2017-01-15T02:03:38.506Z,23.33
2017-01-15T02:04:06.772Z,23.39
2017-01-15T02:04:35.171Z,23.39
2017-01-15T02:05:03.541Z,23.33
2017-01-15T02:05:31.533Z,23.34
2017-01-15T02:05:59.912Z,23.44
2017-01-15T02:06:28.195Z,23.39
2017-01-15T02:06:56.382Z,23.39
2017-01-15T02:07:24.548Z,23.36
2017-01-15T02:07:52.781Z,23.36
2017-01-15T02:08:21.054Z,23.37
2017-01-15T02:09:32.411Z,23.41
2017-01-15T02:10:00.589Z,23.39
2017-01-15T02:10:28.884Z,23.36
2017-01-15T02:10:57.167Z,23.33
2017-01-15T02:11:25.252Z,23.37
2017-01-15T02:11:53.544Z,23.42
2017-01-15T02:12:21.720Z,23.36
2017-01-15T02:12:50.004Z,23.33
2017-01-15T02:13:18.074Z,23.31
2017-01-15T02:13:46.300Z,23.36
2017-01-15T02:14:14.480Z,23.45
2017-01-15T02:15:25.744Z,23.39
2017-01-15T02:15:53.916Z,23.36
2017-01-15T02:16:21.938Z,23.36
2017-01-15T02:16:50.212Z,23.31
2017-01-15T02:17:18.482Z,23.31
2017-01-15T02:17:46.678Z,23.37
2017-01-15T02:18:14.964Z,23.37
2017-01-15T02:18:43.056Z,23.33
2017-01-15T02:19:11.136Z,23.33
2017-01-15T02:19:39.368Z,23.36
2017-01-15T02:20:07.648Z,23.37
2017-01-15T02:21:18.907Z,23.36
2017-01-15T02:21:47.084Z,23.29
2017-01-15T02:22:15.478Z,23.29
2017-01-15T02:22:43.851Z,23.34
2017-01-15T02:23:12.218Z,23.33
2017-01-15T02:23:40.606Z,23.31
2017-01-15T02:24:08.800Z,23.28
2017-01-15T02:24:37.080Z,23.17
2017-01-15T02:25:05.338Z,23.31
2017-01-15T02:25:33.668Z,23.22
2017-01-15T02:26:02.035Z,23.17
2017-01-15T02:27:13.398Z,23.13
2017-01-15T02:27:41.661Z,23.14
2017-01-15T02:28:09.783Z,23.18
2017-01-15T02:28:38.065Z,23.21
2017-01-15T02:29:06.339Z,23.14
2017-01-15T02:29:34.631Z,23.14
2017-01-15T02:30:02.827Z,23.13
2017-01-15T02:30:31.110Z,23.14
2017-01-15T02:30:59.465Z,23.15
2017-01-15T02:31:27.792Z,23.17
2017-01-15T02:31:55.974Z,23.17
2017-01-15T02:33:07.240Z,23.06
2017-01-15T02:33:36.262Z,23.06
2017-01-15T02:34:04.378Z,23.11
2017-01-15T02:34:32.747Z,23.06
2017-01-15T02:35:01.016Z,23.1
2017-01-15T02:35:29.243Z,23.11
2017-01-15T02:35:57.620Z,23.17
2017-01-15T02:36:25.630Z,23.18
2017-01-15T02:36:53.892Z,23.23
2017-01-15T02:37:22.211Z,23.06
2017-01-15T02:37:50.481Z,23.1
2017-01-15T02:39:01.844Z,23.1
2017-01-15T02:39:30.021Z,23.13
2017-01-15T02:39:58.232Z,23.11
2017-01-15T02:40:26.607Z,23.14
2017-01-15T02:40:54.788Z,23.14
2017-01-15T02:41:23.075Z,23.1
2017-01-15T02:41:51.449Z,23.14
2017-01-15T02:42:19.713Z,23.13
2017-01-15T02:42:48.021Z,23.01
2017-01-15T02:43:16.216Z,23.11
2017-01-15T02:43:44.531Z,23.1
2017-01-15T02:44:55.857Z,23.04
2017-01-15T02:45:24.164Z,23.11
2017-01-15T02:45:52.239Z,23.15
2017-01-15T02:46:20.470Z,23.07
2017-01-15T02:46:48.559Z,23.14
2017-01-15T02:47:16.947Z,23.1
2017-01-15T02:47:45.238Z,23.18
2017-01-15T02:48:13.334Z,23.08
2017-01-15T02:48:41.407Z,23.13
2017-01-15T02:49:09.637Z,23.1
2017-01-15T02:49:37.633Z,23.08
2017-01-15T02:50:48.861Z,23.13
2017-01-15T02:51:17.006Z,23.1
2017-01-15T02:51:45.543Z,23.1
2017-01-15T02:52:14.321Z,23.1
2017-01-15T02:52:43.282Z,23.07
2017-01-15T02:53:12.433Z,23.11
2017-01-15T02:53:40.849Z,23.1
2017-01-15T02:54:08.952Z,23.08
2017-01-15T02:54:37.311Z,23.1
2017-01-15T02:55:05.457Z,23.1
2017-01-15T02:55:33.730Z,23.06
2017-01-15T02:56:45.010Z,23.07
2017-01-15T02:57:13.279Z,23.1
2017-01-15T02:57:41.500Z,23.13
2017-01-15T02:58:09.879Z,23.03
2017-01-15T02:58:38.506Z,23.01
2017-01-15T02:59:06.694Z,23.1
2017-01-15T02:59:34.841Z,23.13
2017-01-15T03:00:02.995Z,23.03
2017-01-15T03:00:31.067Z,23.06
2017-01-15T03:00:59.390Z,22.99
2017-01-15T03:01:27.762Z,23.07
2017-01-15T03:02:39.216Z,23.04
2017-01-15T03:03:07.455Z,23.01
2017-01-15T03:03:35.755Z,23.04
2017-01-15T03:04:03.928Z,22.99
2017-01-15T03:04:32.196Z,22.96
2017-01-15T03:05:00.488Z,22.99
2017-01-15T03:05:28.788Z,22.99
2017-01-15T03:05:57.070Z,23.08
2017-01-15T03:06:25.327Z,23.01
2017-01-15T03:06:53.656Z,22.99
2017-01-15T03:07:21.840Z,23.04
2017-01-15T03:08:33.205Z,23.06
2017-01-15T03:09:01.377Z,23.01
2017-01-15T03:09:29.586Z,22.99
2017-01-15T03:09:57.960Z,23.06
2017-01-15T03:10:26.327Z,23.07
2017-01-15T03:10:54.713Z,23.04
2017-01-15T03:11:23.083Z,22.99
2017-01-15T03:11:51.222Z,23.03
2017-01-15T03:12:19.478Z,22.99
2017-01-15T03:12:47.800Z,23.01
2017-01-15T03:13:15.979Z,22.92
2017-01-15T03:14:27.255Z,22.99
2017-01-15T03:14:55.525Z,23.01
2017-01-15T03:15:23.834Z,22.93
2017-01-15T03:15:52.012Z,23.01
2017-01-15T03:16:20.047Z,23.04
2017-01-15T03:16:48.325Z,22.91
2017-01-15T03:17:16.522Z,22.98
2017-01-15T03:17:44.804Z,23.03
2017-01-15T03:18:12.780Z,22.91
2017-01-15T03:18:41.013Z,22.95
2017-01-15T03:19:09.382Z,22.96
2017-01-15T03:20:20.746Z,22.98
2017-01-15T03:20:49.014Z,23.01
2017-01-15T03:21:17.318Z,22.95
2017-01-15T03:21:45.595Z,22.88
2017-01-15T03:22:13.867Z,23.01
2017-01-15T03:22:42.155Z,22.88
2017-01-15T03:23:10.534Z,22.96
2017-01-15T03:23:38.824Z,22.95
2017-01-15T03:24:07.167Z,22.98
2017-01-15T03:24:35.291Z,22.89
2017-01-15T03:25:03.656Z,22.95
2017-01-15T03:26:15.104Z,22.98
2017-01-15T03:26:43.369Z,22.89
2017-01-15T03:27:11.677Z,22.89
2017-01-15T03:27:39.960Z,22.89
2017-01-15T03:28:08.141Z,22.89
2017-01-15T03:28:36.427Z,22.92
2017-01-15T03:29:04.808Z,22.89
2017-01-15T03:29:33.011Z,22.89
2017-01-15T03:30:01.274Z,22.91
2017-01-15T03:30:29.512Z,23.04
2017-01-15T03:30:57.697Z,22.89
2017-01-15T03:32:09.153Z,22.95
2017-01-15T03:32:37.324Z,22.96
2017-01-15T03:33:05.533Z,22.91
2017-01-15T03:33:33.814Z,22.89
2017-01-15T03:34:01.989Z,22.88
2017-01-15T03:34:30.375Z,22.88
2017-01-15T03:34:58.669Z,22.89
2017-01-15T03:35:26.944Z,22.95
2017-01-15T03:35:55.299Z,22.83
2017-01-15T03:36:23.527Z,22.81
2017-01-15T03:36:51.609Z,22.85
2017-01-15T03:38:02.968Z,22.89
2017-01-15T03:38:31.138Z,22.91
2017-01-15T03:38:59.346Z,22.81
2017-01-15T03:39:27.722Z,22.91
2017-01-15T03:39:55.994Z,22.81
2017-01-15T03:40:24.347Z,22.89
2017-01-15T03:40:52.738Z,22.83
2017-01-15T03:41:20.929Z,22.88
2017-01-15T03:41:49.094Z,22.85
2017-01-15T03:42:17.423Z,22.89
2017-01-15T03:42:45.602Z,22.88
2017-01-15T03:43:56.963Z,22.92
2017-01-15T03:44:25.320Z,22.91
2017-01-15T03:44:53.441Z,22.89
2017-01-15T03:45:21.729Z,22.88
2017-01-15T03:45:49.999Z,22.89
2017-01-15T03:46:18.287Z,22.95
2017-01-15T03:46:46.567Z,22.88
2017-01-15T03:47:14.848Z,22.85
2017-01-15T03:47:43.203Z,22.85
2017-01-15T03:48:11.347Z,22.88
2017-01-15T03:48:39.619Z,22.81
2017-01-15T03:49:51.069Z,22.86
2017-01-15T03:50:19.245Z,22.86
2017-01-15T03:50:47.448Z,22.85
2017-01-15T03:51:15.819Z,22.81
2017-01-15T03:51:44.000Z,22.76
2017-01-15T03:52:12.381Z,22.86
2017-01-15T03:52:40.488Z,22.83
2017-01-15T03:53:08.681Z,22.74
2017-01-15T03:53:37.031Z,22.83
2017-01-15T03:54:05.266Z,22.74
2017-01-15T03:54:33.542Z,22.77
2017-01-15T03:55:45.004Z,22.77
2017-01-15T03:56:13.180Z,22.77
2017-01-15T03:56:41.577Z,22.74
2017-01-15T03:57:09.855Z,22.8
2017-01-15T03:57:38.036Z,22.8
2017-01-15T03:58:06.320Z,22.77
2017-01-15T03:58:34.326Z,22.8
2017-01-15T03:59:02.517Z,22.77
2017-01-15T03:59:30.588Z,22.89
2017-01-15T03:59:58.820Z,22.8
2017-01-15T04:00:27.089Z,22.76
2017-01-15T04:01:38.364Z,22.7
2017-01-15T04:02:06.724Z,22.74
2017-01-15T04:02:34.838Z,22.85
2017-01-15T04:03:03.216Z,22.81
2017-01-15T04:03:31.304Z,22.8
2017-01-15T04:03:59.594Z,22.83
2017-01-15T04:04:27.884Z,22.85
2017-01-15T04:04:56.075Z,22.86
2017-01-15T04:05:24.334Z,22.81
2017-01-15T04:05:52.381Z,22.8
2017-01-15T04:06:20.474Z,22.88
2017-01-15T04:07:31.830Z,22.77
2017-01-15T04:08:00.016Z,22.74
2017-01-15T04:08:28.313Z,22.81
2017-01-15T04:08:56.501Z,22.8
2017-01-15T04:09:24.507Z,22.8
2017-01-15T04:09:52.618Z,22.83
2017-01-15T04:10:20.913Z,22.78
2017-01-15T04:10:49.194Z,22.88
2017-01-15T04:11:17.455Z,22.77
2017-01-15T04:11:45.682Z,22.78
2017-01-15T04:12:13.956Z,22.86
2017-01-15T04:13:25.130Z,22.77
2017-01-15T04:13:53.492Z,22.77
2017-01-15T04:14:21.887Z,22.73
2017-01-15T04:14:50.165Z,22.76
2017-01-15T04:15:18.531Z,22.76
2017-01-15T04:15:46.915Z,22.76
2017-01-15T04:16:15.199Z,22.7
2017-01-15T04:16:43.479Z,22.67
2017-01-15T04:17:11.740Z,22.67
2017-01-15T04:17:40.062Z,22.7
2017-01-15T04:18:08.337Z,22.7
2017-01-15T04:19:19.703Z,22.8
2017-01-15T04:19:47.966Z,22.71
2017-01-15T04:20:16.259Z,22.62
2017-01-15T04:20:44.445Z,22.71
2017-01-15T04:21:12.812Z,22.7
2017-01-15T04:21:41.101Z,22.62
2017-01-15T04:22:09.392Z,22.68
2017-01-15T04:22:37.672Z,22.71
2017-01-15T04:23:05.834Z,22.74
2017-01-15T04:23:33.971Z,22.68
2017-01-15T04:24:02.154Z,22.68
2017-01-15T04:25:13.508Z,22.71
2017-01-15T04:25:41.587Z,22.68
2017-01-15T04:26:09.699Z,22.7
2017-01-15T04:26:37.972Z,22.64
2017-01-15T04:27:06.236Z,22.73
2017-01-15T04:27:34.524Z,22.73
2017-01-15T04:28:02.631Z,22.71
2017-01-15T04:28:31.006Z,22.68
2017-01-15T04:28:59.262Z,22.66
2017-01-15T04:29:27.311Z,22.67
2017-01-15T04:29:55.584Z,22.62
2017-01-15T04:31:07.039Z,22.81
2017-01-15T04:31:35.307Z,22.68
2017-01-15T04:32:03.421Z,22.78
2017-01-15T04:32:31.789Z,22.67
2017-01-15T04:33:00.093Z,22.73
2017-01-15T04:33:28.293Z,22.7
2017-01-15T04:33:56.588Z,22.71
2017-01-15T04:34:24.871Z,22.62
2017-01-15T04:34:53.038Z,22.68
2017-01-15T04:35:21.367Z,22.71
2017-01-15T04:35:49.647Z,22.67
2017-01-15T04:37:00.829Z,22.66
2017-01-15T04:37:28.908Z,22.59
2017-01-15T04:37:57.119Z,22.58
2017-01-15T04:38:25.398Z,22.58
2017-01-15T04:38:53.661Z,22.64
2017-01-15T04:39:21.957Z,22.62
2017-01-15T04:39:50.252Z,22.58
2017-01-15T04:40:18.434Z,22.62
2017-01-15T04:40:46.693Z,22.7
2017-01-15T04:41:14.933Z,22.64
2017-01-15T04:41:43.299Z,22.67
2017-01-15T04:42:54.467Z,22.67
2017-01-15T04:43:22.640Z,22.59
2017-01-15T04:43:50.839Z,22.56
2017-01-15T04:44:18.932Z,22.55
2017-01-15T04:44:46.851Z,22.62
2017-01-15T04:45:15.146Z,22.61
2017-01-15T04:45:43.530Z,22.58
2017-01-15T04:46:11.913Z,22.68
2017-01-15T04:46:40.268Z,22.59
2017-01-15T04:47:08.588Z,22.58
2017-01-15T04:47:36.853Z,22.64
2017-01-15T04:48:48.220Z,22.62
2017-01-15T04:49:16.394Z,22.61
2017-01-15T04:49:44.692Z,22.61
2017-01-15T04:50:12.874Z,22.55
2017-01-15T04:50:41.147Z,22.56
2017-01-15T04:51:09.439Z,22.58
2017-01-15T04:51:37.637Z,22.62
2017-01-15T04:52:05.823Z,22.59
2017-01-15T04:52:33.988Z,22.58
2017-01-15T04:53:02.218Z,22.61
2017-01-15T04:53:30.494Z,22.59
2017-01-15T04:54:41.851Z,22.59
2017-01-15T04:55:10.025Z,22.59
2017-01-15T04:55:38.139Z,22.64
2017-01-15T04:56:06.232Z,22.53
2017-01-15T04:56:34.591Z,22.53
2017-01-15T04:57:02.877Z,22.51
2017-01-15T04:57:31.161Z,22.49
2017-01-15T04:57:59.350Z,22.53
2017-01-15T04:58:27.422Z,22.55
2017-01-15T04:58:55.659Z,22.53
2017-01-15T04:59:23.933Z,22.53
2017-01-15T05:00:35.201Z,22.53
2017-01-15T05:01:03.466Z,22.55
2017-01-15T05:01:31.702Z,22.46
2017-01-15T05:01:59.800Z,22.48
2017-01-15T05:02:27.883Z,22.55
2017-01-15T05:02:56.078Z,22.48
2017-01-15T05:03:24.376Z,22.46
2017-01-15T05:03:52.656Z,22.49
2017-01-15T05:04:20.918Z,22.48
2017-01-15T05:04:49.234Z,22.46
2017-01-15T05:05:17.411Z,22.51
2017-01-15T05:06:28.678Z,22.46
2017-01-15T05:06:56.948Z,22.51
2017-01-15T05:07:25.062Z,22.49
2017-01-15T05:07:53.345Z,22.44
2017-01-15T05:08:21.525Z,22.49
2017-01-15T05:08:49.733Z,22.46
2017-01-15T05:09:18.023Z,22.49
2017-01-15T05:09:46.315Z,22.43
2017-01-15T05:10:14.565Z,22.48
2017-01-15T05:10:42.703Z,22.46
2017-01-15T05:11:10.696Z,22.46
2017-01-15T05:12:21.965Z,22.46
2017-01-15T05:12:50.322Z,22.43
2017-01-15T05:13:18.629Z,22.4
2017-01-15T05:13:46.722Z,22.4
2017-01-15T05:14:14.995Z,22.4
2017-01-15T05:14:43.190Z,22.37
2017-01-15T05:15:11.477Z,22.38
2017-01-15T05:15:39.758Z,22.44
2017-01-15T05:16:07.831Z,22.38
2017-01-15T05:16:36.063Z,22.4
2017-01-15T05:17:04.339Z,22.48
2017-01-15T05:18:15.697Z,22.51
2017-01-15T05:18:43.777Z,22.49
2017-01-15T05:19:11.985Z,22.46
2017-01-15T05:19:40.263Z,22.46
2017-01-15T05:20:08.441Z,22.49
2017-01-15T05:20:36.723Z,22.49
2017-01-15T05:21:05.012Z,22.51
2017-01-15T05:21:33.394Z,22.52
2017-01-15T05:22:01.563Z,22.48
2017-01-15T05:22:29.708Z,22.51
2017-01-15T05:22:57.885Z,22.52
2017-01-15T05:24:09.057Z,22.53
2017-01-15T05:24:37.231Z,22.56
2017-01-15T05:25:05.528Z,22.48
2017-01-15T05:25:33.717Z,22.56
2017-01-15T05:26:01.985Z,22.51
2017-01-15T05:26:30.276Z,22.51
2017-01-15T05:26:58.659Z,22.52
2017-01-15T05:27:26.662Z,22.51
2017-01-15T05:27:54.730Z,22.49
2017-01-15T05:28:22.866Z,22.49
2017-01-15T05:28:50.952Z,22.46
2017-01-15T05:30:02.405Z,22.46
2017-01-15T05:30:30.762Z,22.46
2017-01-15T05:30:58.875Z,22.48
2017-01-15T05:31:27.053Z,22.4
2017-01-15T05:31:55.047Z,22.48
2017-01-15T05:32:23.335Z,22.38
2017-01-15T05:32:51.621Z,22.34
2017-01-15T05:33:19.819Z,22.36
2017-01-15T05:33:47.986Z,22.38
2017-01-15T05:34:16.308Z,22.38
2017-01-15T05:34:44.579Z,22.37
2017-01-15T05:35:55.939Z,22.33
2017-01-15T05:36:24.115Z,22.33
2017-01-15T05:36:52.411Z,22.37
2017-01-15T05:37:20.626Z,22.37
2017-01-15T05:37:48.891Z,22.34
2017-01-15T05:38:17.275Z,22.36
2017-01-15T05:38:45.568Z,22.33
2017-01-15T05:39:13.756Z,22.3
2017-01-15T05:39:42.025Z,22.33
2017-01-15T05:40:10.257Z,22.3
2017-01-15T05:40:38.347Z,22.34
2017-01-15T05:41:49.795Z,22.28
2017-01-15T05:42:18.154Z,22.31
2017-01-15T05:42:46.454Z,22.33
2017-01-15T05:43:14.636Z,22.31
2017-01-15T05:43:42.816Z,22.4
2017-01-15T05:44:11.106Z,22.36
2017-01-15T05:44:39.485Z,22.3
2017-01-15T05:45:07.583Z,22.22
2017-01-15T05:45:35.843Z,22.21
2017-01-15T05:46:04.165Z,22.27
2017-01-15T05:46:32.530Z,22.3
2017-01-15T05:47:43.802Z,22.23
2017-01-15T05:48:12.064Z,22.22
2017-01-15T05:48:40.367Z,22.21
2017-01-15T05:49:08.552Z,22.23
2017-01-15T05:49:36.913Z,22.18
2017-01-15T05:50:05.289Z,22.27
2017-01-15T05:50:33.669Z,22.33
2017-01-15T05:51:01.954Z,22.19
2017-01-15T05:51:30.312Z,22.23
2017-01-15T05:51:58.634Z,22.19
2017-01-15T05:52:26.628Z,22.22
2017-01-15T05:53:38.077Z,22.25
2017-01-15T05:54:06.436Z,22.19
2017-01-15T05:54:34.652Z,22.27
2017-01-15T05:55:02.839Z,22.21
2017-01-15T05:55:31.019Z,22.21
2017-01-15T05:55:59.314Z,22.22
2017-01-15T05:56:27.690Z,22.22
2017-01-15T05:56:55.698Z,22.21
2017-01-15T05:57:23.774Z,22.3
2017-01-15T05:57:52.013Z,22.21
2017-01-15T05:58:20.286Z,22.22
2017-01-15T05:59:31.657Z,22.22
2017-01-15T05:59:59.915Z,22.27
2017-01-15T06:00:28.145Z,22.15
2017-01-15T06:00:56.426Z,22.18
2017-01-15T06:01:24.599Z,22.19
2017-01-15T06:01:52.789Z,22.22
2017-01-15T06:02:21.051Z,22.22
2017-01-15T06:02:49.318Z,22.25
2017-01-15T06:03:17.687Z,22.18
2017-01-15T06:03:46.032Z,22.31
2017-01-15T06:04:14.306Z,22.18
2017-01-15T06:05:25.444Z,22.23
2017-01-15T06:05:53.617Z,22.23
2017-01-15T06:06:21.834Z,22.18
2017-01-15T06:06:49.841Z,22.18
2017-01-15T06:07:18.015Z,22.16
2017-01-15T06:07:46.203Z,22.21
2017-01-15T06:08:14.462Z,22.19
2017-01-15T06:08:42.632Z,22.21
2017-01-15T06:09:10.907Z,22.19
2017-01-15T06:09:39.163Z,22.18
2017-01-15T06:10:07.532Z,22.19
2017-01-15T06:11:18.768Z,22.21
2017-01-15T06:11:46.939Z,22.19
2017-01-15T06:12:15.261Z,22.16
2017-01-15T06:12:43.252Z,22.21
2017-01-15T06:13:11.609Z,22.22
2017-01-15T06:13:39.901Z,22.23
2017-01-15T06:14:08.191Z,22.25
2017-01-15T06:14:36.506Z,22.22
2017-01-15T06:15:04.773Z,22.21
2017-01-15T06:15:32.820Z,22.31
2017-01-15T06:16:00.922Z,22.18
2017-01-15T06:17:12.085Z,22.21
2017-01-15T06:17:40.328Z,22.31
2017-01-15T06:18:08.638Z,22.15
2017-01-15T06:18:36.718Z,22.18
2017-01-15T06:19:05.086Z,22.27
2017-01-15T06:19:33.372Z,22.16
2017-01-15T06:20:01.668Z,22.18
2017-01-15T06:20:30.045Z,22.19
2017-01-15T06:20:58.404Z,22.18
2017-01-15T06:21:26.726Z,22.21
2017-01-15T06:21:54.922Z,22.19
2017-01-15T06:23:06.078Z,22.22
2017-01-15T06:23:34.324Z,22.16
2017-01-15T06:24:02.537Z,22.22
2017-01-15T06:24:30.806Z,22.18
2017-01-15T06:24:59.081Z,22.18
2017-01-15T06:25:27.281Z,22.16
2017-01-15T06:25:55.573Z,22.21
2017-01-15T06:26:23.883Z,22.16
2017-01-15T06:26:51.960Z,22.18
2017-01-15T06:27:19.997Z,22.13
2017-01-15T06:27:48.285Z,22.19
2017-01-15T06:28:59.629Z,22.19
2017-01-15T06:29:27.783Z,22.25
2017-01-15T06:29:55.999Z,22.25
2017-01-15T06:30:24.268Z,22.15
2017-01-15T06:30:52.544Z,22.16
2017-01-15T06:31:20.740Z,22.19
2017-01-15T06:31:48.934Z,22.18
2017-01-15T06:32:17.152Z,22.16
2017-01-15T06:32:45.232Z,22.16
2017-01-15T06:33:13.360Z,22.21
2017-01-15T06:33:41.650Z,22.23
2017-01-15T06:34:52.905Z,22.18
2017-01-15T06:35:21.052Z,22.16
2017-01-15T06:35:49.458Z,22.22
2017-01-15T06:36:17.821Z,22.15
2017-01-15T06:36:45.999Z,22.13
2017-01-15T06:37:14.298Z,22.16
2017-01-15T06:37:42.678Z,22.13
2017-01-15T06:38:10.991Z,22.18
2017-01-15T06:38:39.253Z,22.21
2017-01-15T06:39:07.481Z,22.22
2017-01-15T06:39:35.776Z,22.21
2017-01-15T06:40:47.031Z,22.22
2017-01-15T06:41:15.180Z,22.13
2017-01-15T06:41:43.401Z,22.16
2017-01-15T06:42:11.575Z,22.18
2017-01-15T06:42:39.845Z,22.15
2017-01-15T06:43:08.132Z,22.15
2017-01-15T06:43:36.510Z,22.18
2017-01-15T06:44:04.797Z,22.16
2017-01-15T06:44:33.065Z,22.16
2017-01-15T06:45:01.201Z,22.13
2017-01-15T06:45:29.400Z,22.15
2017-01-15T06:46:40.743Z,22.19
2017-01-15T06:47:08.991Z,22.19
2017-01-15T06:47:37.203Z,22.16
2017-01-15T06:48:05.288Z,22.15
2017-01-15T06:48:33.563Z,22.21
2017-01-15T06:49:01.664Z,22.16
2017-01-15T06:49:29.778Z,22.16
2017-01-15T06:49:57.815Z,22.09
2017-01-15T06:50:25.982Z,22.18
2017-01-15T06:50:54.308Z,22.13
2017-01-15T06:51:22.593Z,22.19
2017-01-15T06:52:34.034Z,22.06
2017-01-15T06:53:02.194Z,22.12
2017-01-15T06:53:30.411Z,22.06
2017-01-15T06:53:58.593Z,22.11
2017-01-15T06:54:26.766Z,22.15